VOZ1865 YPPH-YPKG
Flight info
| Callsign | VOZ1865 |
|---|---|
| Flight time | 0h 48m |
| Altitude | 33000 |
| Route | PH Y31 LAKIR Y69 BOSLI Y67 KG |
| Aircraft | A320/M-SDE3FGHIRWY/LB1 |
Departure
| Time | 2026-04-26 10:38 |
|---|---|
| Airport | Perth International Airport (YPPH) |
Arrival
| Time | 2026-04-26 11:26 |
|---|---|
| Airport | Kalgoorlie Boulder Airport (YPKG) |
| Time | Latitude | Longitude | Altitude | Speed | Heading |
|---|---|---|---|---|---|
| 2026-04-26 10:06 | -31.94007 | 115.96980 | 62 ft | 0 kts | 204° |
| 2026-04-26 10:25 | -31.94001 | 115.96983 | 61 ft | 4 kts | 201° |
| 2026-04-26 10:26 | -31.93975 | 115.96991 | 59 ft | 4 kts | 188° |
| 2026-04-26 10:26 | -31.93950 | 115.96998 | 60 ft | 3 kts | 213° |
| 2026-04-26 10:26 | -31.93933 | 115.97016 | 66 ft | 4 kts | 250° |
| 2026-04-26 10:26 | -31.93933 | 115.97044 | 68 ft | 4 kts | 289° |
| 2026-04-26 10:27 | -31.93940 | 115.97070 | 65 ft | 1 kts | 284° |
| 2026-04-26 10:28 | -31.93939 | 115.97063 | 68 ft | 3 kts | 284° |
| 2026-04-26 10:29 | -31.93931 | 115.97025 | 63 ft | 6 kts | 284° |
| 2026-04-26 10:29 | -31.93919 | 115.96967 | 64 ft | 8 kts | 284° |
| 2026-04-26 10:29 | -31.93928 | 115.96895 | 68 ft | 10 kts | 230° |
| 2026-04-26 10:29 | -31.94001 | 115.96865 | 61 ft | 13 kts | 194° |
| 2026-04-26 10:30 | -31.94095 | 115.96838 | 63 ft | 15 kts | 194° |
| 2026-04-26 10:30 | -31.94207 | 115.96805 | 65 ft | 18 kts | 194° |
| 2026-04-26 10:30 | -31.94330 | 115.96769 | 68 ft | 17 kts | 193° |
| 2026-04-26 10:30 | -31.94428 | 115.96741 | 65 ft | 15 kts | 194° |
| 2026-04-26 10:31 | -31.94506 | 115.96688 | 64 ft | 13 kts | 245° |
| 2026-04-26 10:31 | -31.94490 | 115.96575 | 61 ft | 15 kts | 284° |
| 2026-04-26 10:31 | -31.94478 | 115.96523 | 63 ft | 0 kts | 284° |
| 2026-04-26 10:31 | -31.94472 | 115.96492 | 63 ft | 8 kts | 284° |
| 2026-04-26 10:32 | -31.94454 | 115.96410 | 64 ft | 12 kts | 284° |
| 2026-04-26 10:32 | -31.94433 | 115.96306 | 66 ft | 14 kts | 284° |
| 2026-04-26 10:32 | -31.94405 | 115.96179 | 68 ft | 17 kts | 285° |
| 2026-04-26 10:32 | -31.94321 | 115.96094 | 63 ft | 17 kts | 329° |
| 2026-04-26 10:33 | -31.94213 | 115.96018 | 62 ft | 16 kts | 329° |
| 2026-04-26 10:33 | -31.94167 | 115.95985 | 63 ft | 8 kts | 328° |
| 2026-04-26 10:33 | -31.94107 | 115.95950 | 63 ft | 11 kts | 347° |
| 2026-04-26 10:33 | -31.94059 | 115.95998 | 61 ft | 7 kts | 59° |
| 2026-04-26 10:34 | -31.94057 | 115.96002 | 62 ft | 0 kts | 59° |
| 2026-04-26 10:37 | -31.94055 | 115.96005 | 67 ft | 3 kts | 59° |
| 2026-04-26 10:37 | -31.93923 | 115.96263 | 66 ft | 74 kts | 59° |
| 2026-04-26 10:37 | -31.93542 | 115.97001 | 67 ft | 133 kts | 58° |
| 2026-04-26 10:38 | -31.93009 | 115.98044 | 371 ft | 151 kts | 60° |
| 2026-04-26 10:38 | -31.92463 | 115.99097 | 1007 ft | 151 kts | 60° |
| 2026-04-26 10:38 | -31.91920 | 116.00151 | 1624 ft | 151 kts | 60° |
| 2026-04-26 10:38 | -31.91361 | 116.01254 | 2005 ft | 166 kts | 60° |
| 2026-04-26 10:39 | -31.90732 | 116.02504 | 2282 ft | 189 kts | 60° |
| 2026-04-26 10:39 | -31.90015 | 116.03921 | 2549 ft | 215 kts | 59° |
| 2026-04-26 10:39 | -31.89204 | 116.05515 | 2964 ft | 238 kts | 59° |
| 2026-04-26 10:39 | -31.88317 | 116.07258 | 3534 ft | 256 kts | 58° |
| 2026-04-26 10:40 | -31.87388 | 116.09072 | 4396 ft | 262 kts | 57° |
| 2026-04-26 10:40 | -31.86434 | 116.10934 | 5223 ft | 270 kts | 56° |
| 2026-04-26 10:40 | -31.85563 | 116.12914 | 6065 ft | 277 kts | 68° |
| 2026-04-26 10:40 | -31.85085 | 116.15137 | 6902 ft | 283 kts | 76° |
| 2026-04-26 10:41 | -31.84669 | 116.17423 | 7708 ft | 288 kts | 76° |
| 2026-04-26 10:41 | -31.84239 | 116.19739 | 8532 ft | 292 kts | 75° |
| 2026-04-26 10:41 | -31.83789 | 116.22061 | 9325 ft | 297 kts | 75° |
| 2026-04-26 10:41 | -31.83323 | 116.24450 | 10123 ft | 301 kts | 75° |
| 2026-04-26 10:42 | -31.82838 | 116.26924 | 10473 ft | 322 kts | 75° |
| 2026-04-26 10:42 | -31.82493 | 116.28663 | 10647 ft | 336 kts | 75° |
| 2026-04-26 10:42 | -31.81770 | 116.32305 | 11405 ft | 346 kts | 75° |
| 2026-04-26 10:42 | -31.81224 | 116.35082 | 12092 ft | 350 kts | 75° |
| 2026-04-26 10:43 | -31.80676 | 116.37889 | 12788 ft | 354 kts | 75° |
| 2026-04-26 10:43 | -31.80310 | 116.39764 | 13243 ft | 357 kts | 75° |
| 2026-04-26 10:43 | -31.79563 | 116.43598 | 14127 ft | 362 kts | 75° |
| 2026-04-26 10:43 | -31.79189 | 116.45512 | 14525 ft | 364 kts | 75° |
| 2026-04-26 10:44 | -31.78619 | 116.48423 | 15126 ft | 367 kts | 75° |
| 2026-04-26 10:44 | -31.77843 | 116.52359 | 15934 ft | 372 kts | 75° |
| 2026-04-26 10:44 | -31.77255 | 116.55335 | 16536 ft | 375 kts | 75° |
| 2026-04-26 10:44 | -31.76863 | 116.57322 | 16932 ft | 377 kts | 75° |
| 2026-04-26 10:45 | -31.75887 | 116.61246 | 17725 ft | 379 kts | 65° |
| 2026-04-26 10:45 | -31.75091 | 116.63118 | 18133 ft | 380 kts | 57° |
| 2026-04-26 10:45 | -31.73540 | 116.65624 | 18674 ft | 380 kts | 45° |
| 2026-04-26 10:45 | -31.71709 | 116.67885 | 19194 ft | 383 kts | 43° |
| 2026-04-26 10:46 | -31.69856 | 116.70160 | 19720 ft | 387 kts | 43° |
| 2026-04-26 10:46 | -31.68018 | 116.72425 | 20245 ft | 390 kts | 43° |
| 2026-04-26 10:46 | -31.66139 | 116.74741 | 20763 ft | 394 kts | 43° |
| 2026-04-26 10:46 | -31.64244 | 116.77079 | 21276 ft | 397 kts | 43° |
| 2026-04-26 10:47 | -31.62531 | 116.79661 | 21764 ft | 406 kts | 58° |
| 2026-04-26 10:47 | -31.61491 | 116.82775 | 22242 ft | 415 kts | 72° |
| 2026-04-26 10:47 | -31.60734 | 116.86060 | 22729 ft | 419 kts | 72° |
| 2026-04-26 10:47 | -31.59980 | 116.89387 | 23202 ft | 424 kts | 72° |
| 2026-04-26 10:48 | -31.59221 | 116.92749 | 23659 ft | 428 kts | 72° |
| 2026-04-26 10:48 | -31.58456 | 116.96137 | 24054 ft | 432 kts | 72° |
| 2026-04-26 10:48 | -31.57682 | 116.99557 | 24455 ft | 435 kts | 72° |
| 2026-04-26 10:48 | -31.56900 | 117.02994 | 24855 ft | 438 kts | 72° |
| 2026-04-26 10:49 | -31.56108 | 117.06451 | 25249 ft | 441 kts | 72° |
| 2026-04-26 10:49 | -31.55307 | 117.09936 | 25638 ft | 444 kts | 72° |
| 2026-04-26 10:49 | -31.54501 | 117.13436 | 26028 ft | 446 kts | 72° |
| 2026-04-26 10:49 | -31.53693 | 117.16961 | 26408 ft | 449 kts | 72° |
| 2026-04-26 10:50 | -31.52881 | 117.20508 | 26767 ft | 452 kts | 72° |
| 2026-04-26 10:50 | -31.52068 | 117.24036 | 27136 ft | 455 kts | 72° |
| 2026-04-26 10:50 | -31.51235 | 117.27628 | 27487 ft | 458 kts | 72° |
| 2026-04-26 10:50 | -31.50396 | 117.31247 | 27836 ft | 461 kts | 72° |
| 2026-04-26 10:51 | -31.49553 | 117.34882 | 28192 ft | 464 kts | 72° |
| 2026-04-26 10:51 | -31.47849 | 117.42223 | 28898 ft | 470 kts | 72° |
| 2026-04-26 10:51 | -31.46988 | 117.45932 | 29249 ft | 472 kts | 72° |
| 2026-04-26 10:52 | -31.46123 | 117.49661 | 29592 ft | 476 kts | 73° |
| 2026-04-26 10:52 | -31.45254 | 117.53409 | 29919 ft | 479 kts | 73° |
| 2026-04-26 10:52 | -31.44376 | 117.57179 | 30260 ft | 482 kts | 73° |
| 2026-04-26 10:52 | -31.43483 | 117.60982 | 30547 ft | 485 kts | 72° |
| 2026-04-26 10:53 | -31.42597 | 117.64744 | 30817 ft | 488 kts | 72° |
| 2026-04-26 10:53 | -31.41693 | 117.68582 | 31086 ft | 491 kts | 72° |
| 2026-04-26 10:53 | -31.40785 | 117.72450 | 31354 ft | 494 kts | 72° |
| 2026-04-26 10:54 | -31.38968 | 117.80201 | 32085 ft | 494 kts | 72° |
| 2026-04-26 10:54 | -31.38052 | 117.84088 | 32445 ft | 495 kts | 72° |
| 2026-04-26 10:54 | -31.37135 | 117.87970 | 32807 ft | 496 kts | 72° |
| 2026-04-26 10:54 | -31.36210 | 117.91869 | 33081 ft | 498 kts | 71° |
| 2026-04-26 10:55 | -31.34372 | 117.99618 | 33146 ft | 497 kts | 71° |
| 2026-04-26 10:55 | -31.32494 | 118.07504 | 33135 ft | 507 kts | 72° |
| 2026-04-26 10:56 | -31.30595 | 118.15463 | 33145 ft | 509 kts | 71° |
| 2026-04-26 10:56 | -31.28683 | 118.23441 | 33147 ft | 509 kts | 71° |
| 2026-04-26 10:57 | -31.26770 | 118.31414 | 33147 ft | 510 kts | 71° |
| 2026-04-26 10:57 | -31.24849 | 118.39389 | 33143 ft | 510 kts | 72° |
| 2026-04-26 10:58 | -31.22923 | 118.47364 | 33153 ft | 510 kts | 71° |
| 2026-04-26 10:58 | -31.20990 | 118.55334 | 33157 ft | 510 kts | 71° |
| 2026-04-26 10:59 | -31.19056 | 118.63310 | 33152 ft | 510 kts | 71° |
| 2026-04-26 10:59 | -31.17113 | 118.71282 | 33156 ft | 510 kts | 72° |
| 2026-04-26 11:00 | -31.15174 | 118.79202 | 33164 ft | 510 kts | 72° |
| 2026-04-26 11:00 | -31.13224 | 118.87168 | 33154 ft | 510 kts | 72° |
| 2026-04-26 11:01 | -31.11272 | 118.95124 | 33156 ft | 510 kts | 71° |
| 2026-04-26 11:01 | -31.09313 | 119.03075 | 33166 ft | 510 kts | 72° |
| 2026-04-26 11:02 | -31.07347 | 119.11022 | 33166 ft | 509 kts | 72° |
| 2026-04-26 11:02 | -31.05378 | 119.18963 | 33171 ft | 509 kts | 72° |
| 2026-04-26 11:03 | -31.03406 | 119.26908 | 33169 ft | 509 kts | 72° |
| 2026-04-26 11:03 | -31.02446 | 119.30762 | 33167 ft | 493 kts | 72° |
| 2026-04-26 11:03 | -31.01485 | 119.34610 | 32890 ft | 484 kts | 72° |
| 2026-04-26 11:04 | -31.00560 | 119.38304 | 32278 ft | 476 kts | 72° |
| 2026-04-26 11:04 | -30.99636 | 119.42001 | 31784 ft | 464 kts | 72° |
| 2026-04-26 11:04 | -30.98736 | 119.45595 | 31281 ft | 461 kts | 71° |
| 2026-04-26 11:04 | -30.97852 | 119.49118 | 30797 ft | 456 kts | 71° |
| 2026-04-26 11:05 | -30.96968 | 119.52635 | 30322 ft | 449 kts | 71° |
| 2026-04-26 11:05 | -30.96098 | 119.56097 | 29805 ft | 441 kts | 71° |
| 2026-04-26 11:05 | -30.95246 | 119.59487 | 29370 ft | 431 kts | 71° |
| 2026-04-26 11:05 | -30.94408 | 119.62817 | 28938 ft | 425 kts | 71° |
| 2026-04-26 11:06 | -30.93579 | 119.66099 | 28516 ft | 421 kts | 71° |
| 2026-04-26 11:06 | -30.92751 | 119.69370 | 28090 ft | 421 kts | 71° |
| 2026-04-26 11:06 | -30.91922 | 119.72639 | 27668 ft | 419 kts | 71° |
| 2026-04-26 11:06 | -30.91105 | 119.75864 | 27239 ft | 412 kts | 71° |
| 2026-04-26 11:07 | -30.90302 | 119.79043 | 26819 ft | 407 kts | 71° |
| 2026-04-26 11:07 | -30.89502 | 119.82200 | 26387 ft | 407 kts | 71° |
| 2026-04-26 11:07 | -30.88700 | 119.85356 | 25937 ft | 406 kts | 72° |
| 2026-04-26 11:07 | -30.87894 | 119.88512 | 25506 ft | 406 kts | 72° |
| 2026-04-26 11:08 | -30.87097 | 119.91645 | 25045 ft | 401 kts | 72° |
| 2026-04-26 11:08 | -30.86311 | 119.94728 | 24606 ft | 394 kts | 72° |
| 2026-04-26 11:08 | -30.85534 | 119.97765 | 24155 ft | 390 kts | 72° |
| 2026-04-26 11:08 | -30.84756 | 120.00800 | 23693 ft | 391 kts | 72° |
| 2026-04-26 11:09 | -30.83983 | 120.03817 | 23181 ft | 386 kts | 72° |
| 2026-04-26 11:09 | -30.83229 | 120.06763 | 22759 ft | 374 kts | 72° |
| 2026-04-26 11:09 | -30.82494 | 120.09647 | 22319 ft | 369 kts | 72° |
| 2026-04-26 11:09 | -30.81768 | 120.12490 | 21886 ft | 367 kts | 72° |
| 2026-04-26 11:10 | -30.81038 | 120.15336 | 21456 ft | 367 kts | 72° |
| 2026-04-26 11:10 | -30.80316 | 120.18135 | 21024 ft | 365 kts | 72° |
| 2026-04-26 11:10 | -30.79593 | 120.20943 | 20595 ft | 360 kts | 72° |
| 2026-04-26 11:10 | -30.78880 | 120.23713 | 20169 ft | 355 kts | 73° |
| 2026-04-26 11:11 | -30.78170 | 120.26471 | 19749 ft | 356 kts | 73° |
| 2026-04-26 11:11 | -30.77459 | 120.29226 | 19326 ft | 354 kts | 73° |
| 2026-04-26 11:11 | -30.76759 | 120.31941 | 18911 ft | 348 kts | 73° |
| 2026-04-26 11:11 | -30.76066 | 120.34617 | 18502 ft | 344 kts | 73° |
| 2026-04-26 11:12 | -30.75380 | 120.37261 | 18042 ft | 339 kts | 73° |
| 2026-04-26 11:12 | -30.74700 | 120.39880 | 17627 ft | 337 kts | 73° |
| 2026-04-26 11:12 | -30.74029 | 120.42467 | 17235 ft | 332 kts | 73° |
| 2026-04-26 11:12 | -30.73364 | 120.45026 | 16840 ft | 330 kts | 72° |
| 2026-04-26 11:13 | -30.72700 | 120.47580 | 16447 ft | 330 kts | 72° |
| 2026-04-26 11:13 | -30.72037 | 120.50125 | 16053 ft | 328 kts | 72° |
| 2026-04-26 11:13 | -30.71378 | 120.52643 | 15668 ft | 324 kts | 72° |
| 2026-04-26 11:13 | -30.70730 | 120.55122 | 15285 ft | 324 kts | 72° |
| 2026-04-26 11:14 | -30.70083 | 120.57611 | 14895 ft | 319 kts | 71° |
| 2026-04-26 11:14 | -30.69446 | 120.60058 | 14522 ft | 314 kts | 72° |
| 2026-04-26 11:14 | -30.68815 | 120.62479 | 14150 ft | 313 kts | 71° |
| 2026-04-26 11:14 | -30.68186 | 120.64896 | 13750 ft | 310 kts | 71° |
| 2026-04-26 11:15 | -30.67568 | 120.67270 | 13371 ft | 304 kts | 71° |
| 2026-04-26 11:15 | -30.66955 | 120.69615 | 13006 ft | 303 kts | 71° |
| 2026-04-26 11:15 | -30.66339 | 120.71959 | 12645 ft | 303 kts | 71° |
| 2026-04-26 11:15 | -30.65722 | 120.74301 | 12276 ft | 303 kts | 71° |
| 2026-04-26 11:16 | -30.65107 | 120.76639 | 11906 ft | 303 kts | 71° |
| 2026-04-26 11:16 | -30.64491 | 120.78979 | 11538 ft | 303 kts | 71° |
| 2026-04-26 11:16 | -30.63874 | 120.81319 | 11164 ft | 303 kts | 71° |
| 2026-04-26 11:16 | -30.63256 | 120.83666 | 10794 ft | 303 kts | 71° |
| 2026-04-26 11:17 | -30.62651 | 120.85956 | 10326 ft | 300 kts | 72° |
| 2026-04-26 11:17 | -30.62050 | 120.88286 | 9844 ft | 295 kts | 76° |
| 2026-04-26 11:17 | -30.61812 | 120.90578 | 9479 ft | 288 kts | 90° |
| 2026-04-26 11:17 | -30.62057 | 120.92887 | 9131 ft | 288 kts | 104° |
| 2026-04-26 11:18 | -30.62705 | 120.95085 | 8788 ft | 288 kts | 110° |
| 2026-04-26 11:18 | -30.63404 | 120.97263 | 8433 ft | 288 kts | 111° |
| 2026-04-26 11:18 | -30.64100 | 120.99444 | 8100 ft | 288 kts | 111° |
| 2026-04-26 11:18 | -30.64793 | 121.01632 | 7751 ft | 288 kts | 110° |
| 2026-04-26 11:19 | -30.65486 | 121.03822 | 7393 ft | 289 kts | 110° |
| 2026-04-26 11:19 | -30.66184 | 121.06021 | 7038 ft | 289 kts | 110° |
| 2026-04-26 11:19 | -30.66876 | 121.08203 | 6686 ft | 286 kts | 110° |
| 2026-04-26 11:19 | -30.67555 | 121.10348 | 6399 ft | 278 kts | 110° |
| 2026-04-26 11:20 | -30.68209 | 121.12416 | 6310 ft | 267 kts | 110° |
| 2026-04-26 11:20 | -30.68628 | 121.13742 | 6241 ft | 261 kts | 110° |
| 2026-04-26 11:20 | -30.69444 | 121.16315 | 6093 ft | 246 kts | 109° |
| 2026-04-26 11:20 | -30.70026 | 121.18143 | 5982 ft | 236 kts | 109° |
| 2026-04-26 11:21 | -30.70600 | 121.19935 | 5656 ft | 235 kts | 109° |
| 2026-04-26 11:21 | -30.71162 | 121.21676 | 5355 ft | 229 kts | 108° |
| 2026-04-26 11:21 | -30.71716 | 121.23380 | 5070 ft | 222 kts | 108° |
| 2026-04-26 11:21 | -30.72254 | 121.25046 | 4782 ft | 218 kts | 108° |
| 2026-04-26 11:22 | -30.72786 | 121.26692 | 4505 ft | 216 kts | 107° |
| 2026-04-26 11:22 | -30.73312 | 121.28323 | 4220 ft | 214 kts | 107° |
| 2026-04-26 11:22 | -30.73831 | 121.29940 | 3946 ft | 211 kts | 107° |
| 2026-04-26 11:22 | -30.74335 | 121.31504 | 3689 ft | 204 kts | 107° |
| 2026-04-26 11:23 | -30.74832 | 121.33042 | 3448 ft | 201 kts | 107° |
| 2026-04-26 11:23 | -30.75309 | 121.34517 | 3183 ft | 190 kts | 107° |
| 2026-04-26 11:23 | -30.75759 | 121.35907 | 2925 ft | 176 kts | 107° |
| 2026-04-26 11:23 | -30.76170 | 121.37175 | 2711 ft | 160 kts | 107° |
| 2026-04-26 11:24 | -30.76544 | 121.38324 | 2507 ft | 147 kts | 107° |
| 2026-04-26 11:24 | -30.76888 | 121.39404 | 2332 ft | 140 kts | 106° |
| 2026-04-26 11:24 | -30.77209 | 121.40460 | 2109 ft | 138 kts | 108° |
| 2026-04-26 11:24 | -30.77554 | 121.41503 | 1899 ft | 138 kts | 108° |
| 2026-04-26 11:25 | -30.77879 | 121.42554 | 1727 ft | 138 kts | 109° |
| 2026-04-26 11:25 | -30.78226 | 121.43594 | 1562 ft | 138 kts | 109° |
| 2026-04-26 11:25 | -30.78562 | 121.44640 | 1366 ft | 138 kts | 109° |
| 2026-04-26 11:25 | -30.78897 | 121.45676 | 1227 ft | 136 kts | 109° |
| 2026-04-26 11:26 | -30.79178 | 121.46553 | 1210 ft | 91 kts | 111° |
| 2026-04-26 11:26 | -30.79326 | 121.47010 | 1212 ft | 35 kts | 109° |
| 2026-04-26 11:26 | -30.79387 | 121.47200 | 1212 ft | 17 kts | 110° |
| 2026-04-26 11:26 | -30.79428 | 121.47328 | 1211 ft | 7 kts | 111° |
| 2026-04-26 11:27 | -30.79427 | 121.47397 | 1211 ft | 9 kts | 105° |
| 2026-04-26 11:27 | -30.79452 | 121.47376 | 1211 ft | 9 kts | 301° |
| 2026-04-26 11:27 | -30.79421 | 121.47309 | 1212 ft | 10 kts | 287° |
| 2026-04-26 11:27 | -30.79396 | 121.47225 | 1212 ft | 12 kts | 292° |
| 2026-04-26 11:28 | -30.79362 | 121.47125 | 1212 ft | 15 kts | 290° |
| 2026-04-26 11:28 | -30.79324 | 121.47006 | 1212 ft | 17 kts | 290° |
| 2026-04-26 11:28 | -30.79280 | 121.46870 | 1212 ft | 19 kts | 290° |
| 2026-04-26 11:28 | -30.79228 | 121.46709 | 1210 ft | 23 kts | 290° |
| 2026-04-26 11:29 | -30.79170 | 121.46529 | 1210 ft | 23 kts | 290° |
| 2026-04-26 11:29 | -30.79111 | 121.46346 | 1210 ft | 26 kts | 290° |
| 2026-04-26 11:29 | -30.79048 | 121.46148 | 1213 ft | 26 kts | 290° |
| 2026-04-26 11:29 | -30.78987 | 121.45961 | 1213 ft | 25 kts | 290° |
| 2026-04-26 11:30 | -30.78938 | 121.45809 | 1214 ft | 9 kts | 291° |
| 2026-04-26 11:30 | -30.78922 | 121.45760 | 1214 ft | 10 kts | 290° |
| 2026-04-26 11:30 | -30.78841 | 121.45725 | 1213 ft | 14 kts | 18° |
| 2026-04-26 11:30 | -30.78741 | 121.45766 | 1212 ft | 17 kts | 20° |
| 2026-04-26 11:31 | -30.78667 | 121.45796 | 1212 ft | 9 kts | 9° |
| 2026-04-26 11:31 | -30.78616 | 121.45760 | 1212 ft | 8 kts | 314° |
| 2026-04-26 11:31 | -30.78584 | 121.45731 | 1212 ft | 5 kts | 355° |
| 2026-04-26 11:31 | -30.78576 | 121.45737 | 1212 ft | 1 kts | 41° |
| 2026-04-26 11:32 | -30.78573 | 121.45743 | 1212 ft | 0 kts | 56° |